TimeEDT,TemperatureF,Dew PointF,Humidity,Sea Level PressureIn,VisibilityMPH,Wind Direction,Wind SpeedMPH,Gust SpeedMPH,PrecipitationIn,Events,Conditions,WindDirDegrees,DateUTC
2:00 AM,60.1,55.9,86,30.21,10.0,NE,3.5,-,N/A,,Overcast,50,2012-10-26 06:00:00
4:00 AM,59.0,55.9,90,30.19,10.0,Calm,Calm,-,N/A,,Overcast,0,2012-10-26 08:00:00
5:00 AM,57.9,55.0,90,30.19,10.0,NNE,4.6,-,N/A,,Overcast,20,2012-10-26 09:00:00
6:00 AM,57.9,55.0,90,30.19,10.0,Calm,Calm,-,N/A,,Mostly Cloudy,0,2012-10-26 10:00:00
6:13 AM,57.2,55.4,94,30.20,10.0,Calm,Calm,-,N/A,,Scattered Clouds,0,2012-10-26 10:13:00
6:29 AM,57.2,55.4,94,30.20,10.0,North,3.5,-,N/A,,Mostly Cloudy,10,2012-10-26 10:29:00
7:00 AM,57.9,55.9,93,30.20,10.0,Calm,Calm,-,N/A,,Overcast,0,2012-10-26 11:00:00
9:00 AM,60.1,57.0,90,30.20,10.0,Variable,4.6,-,N/A,,Overcast,0,2012-10-26 13:00:00
10:00 AM,62.1,57.0,84,30.21,10.0,NNE,3.5,-,N/A,,Overcast,30,2012-10-26 14:00:00
10:47 AM,64.4,57.2,77,30.22,10.0,East,3.5,-,N/A,,Overcast,80,2012-10-26 14:47:00
11:00 AM,64.4,57.2,77,30.22,10.0,ENE,3.5,-,N/A,,Overcast,70,2012-10-26 15:00:00
11:06 AM,64.0,57.0,78,30.22,10.0,ENE,3.5,-,N/A,,Overcast,70,2012-10-26 15:06:00
11:32 AM,64.4,57.2,77,30.22,10.0,East,4.6,-,N/A,,Overcast,80,2012-10-26 15:32:00
12:00 PM,66.0,57.9,75,30.20,10.0,East,6.9,-,N/A,,Overcast,90,2012-10-26 16:00:00
12:50 PM,66.2,57.2,73,30.19,10.0,East,5.8,-,N/A,,Overcast,90,2012-10-26 16:50:00
1:00 PM,66.0,57.9,75,30.18,10.0,East,4.6,-,N/A,,Overcast,80,2012-10-26 17:00:00
2:00 PM,66.9,57.0,70,30.15,10.0,East,6.9,-,N/A,,Overcast,80,2012-10-26 18:00:00
3:00 PM,68.0,57.9,70,30.12,10.0,Variable,4.6,-,N/A,,Overcast,0,2012-10-26 19:00:00
4:00 PM,66.9,57.9,73,30.12,10.0,ESE,4.6,-,N/A,,Overcast,120,2012-10-26 20:00:00
4:23 PM,66.2,57.2,73,30.11,10.0,East,6.9,-,N/A,,Overcast,80,2012-10-26 20:23:00
4:32 PM,66.2,57.2,73,30.12,10.0,East,5.8,-,N/A,,Overcast,90,2012-10-26 20:32:00
4:53 PM,66.2,57.2,73,30.11,10.0,East,5.8,-,N/A,,Overcast,90,2012-10-26 20:53:00
5:00 PM,66.0,57.9,75,30.11,10.0,East,6.9,-,N/A,,Overcast,90,2012-10-26 21:00:00
6:00 PM,64.0,57.9,80,30.11,10.0,East,4.6,-,N/A,,Overcast,80,2012-10-26 22:00:00
7:00 PM,63.0,57.9,84,30.12,10.0,East,3.5,-,N/A,,Overcast,100,2012-10-26 23:00:00
8:00 PM,63.0,57.9,84,30.12,10.0,Calm,Calm,-,N/A,,Overcast,0,2012-10-27 00:00:00
9:00 PM,62.1,59.0,90,30.13,10.0,Calm,Calm,-,N/A,,Overcast,0,2012-10-27 01:00:00
10:00 PM,62.1,59.0,90,30.12,10.0,Calm,Calm,-,N/A,,Overcast,0,2012-10-27 02:00:00